createdAt,value
2023-02-28T00:00:45.550Z,89.50
2023-02-28T00:03:31.019Z,86.95
2023-02-28T00:06:15.005Z,87.14
2023-02-28T00:08:58.866Z,88.27
2023-02-28T00:11:42.705Z,88.58
2023-02-28T00:14:26.667Z,86.80
2023-02-28T00:17:10.552Z,86.57
2023-02-28T00:19:55.930Z,87.06
2023-02-28T00:22:41.331Z,86.76
2023-02-28T00:25:27.234Z,86.72
2023-02-28T00:28:11.020Z,88.20
2023-02-28T00:30:55.236Z,87.47
2023-02-28T00:33:39.247Z,88.10
2023-02-28T00:36:24.507Z,87.65
2023-02-28T00:39:08.450Z,85.91
2023-02-28T00:41:52.232Z,85.89
2023-02-28T00:44:36.128Z,87.73
2023-02-28T00:47:19.969Z,89.08
2023-02-28T00:50:04.479Z,87.01
2023-02-28T00:52:50.133Z,87.50
2023-02-28T00:55:34.086Z,86.80
2023-02-28T00:58:17.974Z,87.89
2023-02-28T01:01:02.153Z,87.62
2023-02-28T01:03:45.996Z,87.21
2023-02-28T01:06:29.822Z,86.49
2023-02-28T01:09:15.081Z,86.71
2023-02-28T01:11:59.907Z,87.68
2023-02-28T01:14:43.844Z,88.62
2023-02-28T01:17:27.661Z,89.22
2023-02-28T01:20:12.804Z,87.38
2023-02-28T01:22:56.760Z,85.41
2023-02-28T01:25:41.960Z,87.46
2023-02-28T01:28:25.858Z,85.98
2023-02-28T01:31:11.312Z,87.17
2023-02-28T01:33:55.561Z,86.94
2023-02-28T01:36:39.411Z,89.59
2023-02-28T01:39:23.204Z,89.04
2023-02-28T01:42:11.041Z,88.20
2023-02-28T01:45:01.866Z,87.99
2023-02-28T01:47:49.277Z,86.54
2023-02-28T01:50:36.609Z,87.57
2023-02-28T01:53:26.906Z,87.50
2023-02-28T01:56:14.244Z,88.48
2023-02-28T01:59:00.054Z,87.44
2023-02-28T02:01:44.699Z,87.50
2023-02-28T02:04:34.726Z,87.05
2023-02-28T02:07:20.665Z,87.30
2023-02-28T02:10:09.524Z,88.03
2023-02-28T02:13:10.743Z,89.19
2023-02-28T02:16:28.322Z,87.65
2023-02-28T02:19:32.434Z,87.42
2023-02-28T02:22:52.192Z,86.22
2023-02-28T02:25:41.561Z,86.30
2023-02-28T02:28:57.556Z,86.94
2023-02-28T02:31:57.485Z,88.75
2023-02-28T02:34:58.920Z,87.67
2023-02-28T02:37:50.918Z,88.69
2023-02-28T02:40:40.744Z,88.01
2023-02-28T02:43:31.372Z,86.80
2023-02-28T02:46:21.355Z,86.30
2023-02-28T02:49:11.355Z,86.54
2023-02-28T02:51:59.846Z,86.34
2023-02-28T02:54:46.786Z,85.96
2023-02-28T02:57:36.487Z,84.82
2023-02-28T03:00:25.477Z,85.86
2023-02-28T03:03:11.766Z,85.34
2023-02-28T03:05:55.657Z,85.88
2023-02-28T03:08:41.271Z,87.76
2023-02-28T03:11:25.424Z,87.10
2023-02-28T03:14:39.360Z,85.62
2023-02-28T03:18:06.309Z,86.61
2023-02-28T03:21:01.877Z,86.55
2023-02-28T03:23:58.405Z,87.04
2023-02-28T03:26:45.596Z,85.72
2023-02-28T03:29:35.856Z,84.22
2023-02-28T03:32:26.452Z,85.54
2023-02-28T03:35:16.749Z,84.17
2023-02-28T03:38:07.382Z,85.43
2023-02-28T03:40:57.333Z,86.76
2023-02-28T03:43:45.644Z,86.27
2023-02-28T03:46:34.670Z,86.67
2023-02-28T03:49:22.215Z,89.80
2023-02-28T03:52:09.566Z,89.97
2023-02-28T03:54:56.929Z,89.01
2023-02-28T03:57:51.756Z,87.96
2023-02-28T04:00:38.108Z,87.01
2023-02-28T04:03:21.947Z,86.85
2023-02-28T04:06:08.226Z,87.10
2023-02-28T04:08:52.490Z,85.04
2023-02-28T04:11:38.899Z,85.22
2023-02-28T04:14:24.961Z,84.85
2023-02-28T04:17:08.742Z,85.06
2023-02-28T04:19:52.539Z,86.89
2023-02-28T04:22:36.379Z,85.24
2023-02-28T04:25:20.122Z,85.38
2023-02-28T04:28:03.892Z,85.85
2023-02-28T04:30:49.036Z,85.99
2023-02-28T04:33:34.609Z,84.98
2023-02-28T04:36:19.024Z,85.26
2023-02-28T04:39:02.881Z,85.57
2023-02-28T04:41:46.994Z,86.48
2023-02-28T04:44:30.910Z,86.44
2023-02-28T04:47:16.137Z,86.16
2023-02-28T04:50:00.165Z,86.01
2023-02-28T04:52:43.956Z,85.61
2023-02-28T04:55:27.903Z,86.62
2023-02-28T04:58:11.936Z,87.50
2023-02-28T05:00:56.253Z,86.94
2023-02-28T05:03:42.587Z,85.44
2023-02-28T05:06:28.660Z,84.41
2023-02-28T05:09:13.662Z,86.18
2023-02-28T05:11:58.034Z,87.14
2023-02-28T05:14:41.840Z,88.42
2023-02-28T05:17:25.709Z,86.97
2023-02-28T05:20:15.726Z,89.58
2023-02-28T05:23:01.817Z,88.52
2023-02-28T05:25:45.686Z,88.29
2023-02-28T05:28:29.808Z,90.28
2023-02-28T05:31:13.918Z,88.53
2023-02-28T05:33:57.650Z,87.93
2023-02-28T05:36:43.300Z,88.65
2023-02-28T05:39:27.227Z,87.62
2023-02-28T05:42:11.328Z,85.94
2023-02-28T05:44:55.149Z,85.88
2023-02-28T05:47:39.048Z,85.33
2023-02-28T05:50:22.816Z,86.95
2023-02-28T05:53:08.051Z,88.44
2023-02-28T05:55:51.836Z,87.41
2023-02-28T05:58:35.913Z,88.54
2023-02-28T06:01:34.110Z,89.12
2023-02-28T06:04:30.994Z,91.09
2023-02-28T06:07:16.191Z,90.13
2023-02-28T06:10:01.457Z,87.75
2023-02-28T06:12:47.081Z,87.82
2023-02-28T06:15:31.418Z,88.86
2023-02-28T06:18:15.442Z,90.14
2023-02-28T06:20:59.383Z,90.63
2023-02-28T06:23:43.320Z,90.86
2023-02-28T06:26:28.649Z,90.23
2023-02-28T06:29:12.515Z,88.52
2023-02-28T06:31:56.496Z,90.07
2023-02-28T06:34:40.396Z,89.88
2023-02-28T06:37:27.128Z,90.26
2023-02-28T06:40:14.073Z,89.99
2023-02-28T06:42:59.271Z,89.74
2023-02-28T06:45:45.418Z,92.15
2023-02-28T06:48:29.390Z,92.52
2023-02-28T06:51:16.128Z,91.81
2023-02-28T06:53:59.919Z,92.57
2023-02-28T06:56:43.707Z,93.21
2023-02-28T06:59:28.954Z,94.98
2023-02-28T07:02:12.611Z,94.97
2023-02-28T07:04:56.764Z,94.79
2023-02-28T07:07:44.666Z,95.19
2023-02-28T07:10:28.527Z,93.14
2023-02-28T07:13:12.617Z,92.82
2023-02-28T07:15:59.873Z,92.10
2023-02-28T07:18:43.688Z,93.35
2023-02-28T07:21:27.742Z,91.89
2023-02-28T07:24:11.814Z,91.49
2023-02-28T07:26:55.613Z,91.15
2023-02-28T07:29:39.620Z,91.35
2023-02-28T07:32:25.089Z,89.14
2023-02-28T07:35:10.110Z,91.00
2023-02-28T07:37:54.229Z,90.11
2023-02-28T07:40:38.463Z,90.83
2023-02-28T07:43:22.306Z,91.20
2023-02-28T07:46:07.932Z,89.64
2023-02-28T07:48:53.905Z,90.66
2023-02-28T07:51:37.807Z,90.06
2023-02-28T07:54:21.717Z,89.58
2023-02-28T07:57:05.559Z,89.94
2023-02-28T07:59:49.386Z,87.23
2023-02-28T08:02:33.248Z,87.62
2023-02-28T08:05:21.827Z,85.82
2023-02-28T08:08:06.524Z,84.07
2023-02-28T08:10:50.415Z,83.79
2023-02-28T08:13:34.309Z,83.76
2023-02-28T08:16:22.997Z,86.09
2023-02-28T08:19:07.048Z,86.14
2023-02-28T08:21:52.384Z,86.53
2023-02-28T08:24:36.228Z,85.94
2023-02-28T08:27:19.986Z,86.13
2023-02-28T08:30:04.258Z,84.71
2023-02-28T08:32:49.170Z,84.08
2023-02-28T08:35:33.208Z,85.03
2023-02-28T08:38:18.516Z,84.78
2023-02-28T08:41:03.913Z,83.10
2023-02-28T08:43:47.714Z,82.89
2023-02-28T08:46:31.646Z,83.00
2023-02-28T08:49:18.154Z,82.81
2023-02-28T08:52:01.926Z,82.97
2023-02-28T08:54:47.021Z,82.19
2023-02-28T08:57:30.810Z,82.71
2023-02-28T09:00:15.664Z,81.64
2023-02-28T09:02:59.518Z,82.51
2023-02-28T09:05:43.405Z,81.25
2023-02-28T09:08:28.579Z,80.87
2023-02-28T09:11:14.261Z,77.92
2023-02-28T09:13:58.206Z,79.33
2023-02-28T09:16:42.164Z,79.41
2023-02-28T09:19:26.196Z,79.50
2023-02-28T09:22:10.405Z,78.64
2023-02-28T09:24:54.649Z,77.23
2023-02-28T09:27:41.841Z,79.69
2023-02-28T09:30:26.248Z,78.75
2023-02-28T09:33:10.822Z,75.39
2023-02-28T09:36:01.871Z,77.29
2023-02-28T09:38:48.901Z,77.90
2023-02-28T09:41:48.403Z,77.94
2023-02-28T09:44:39.796Z,76.04
2023-02-28T09:47:34.284Z,77.17
2023-02-28T09:50:33.965Z,74.40
2023-02-28T09:53:24.741Z,74.77
2023-02-28T09:56:12.351Z,76.59
2023-02-28T09:59:01.264Z,78.63
2023-02-28T10:01:57.370Z,79.26
2023-02-28T10:04:52.746Z,79.92
2023-02-28T10:07:56.090Z,80.23
2023-02-28T10:10:42.875Z,78.70
2023-02-28T10:13:34.277Z,79.25
2023-02-28T10:16:23.218Z,79.83
2023-02-28T10:19:14.178Z,80.66
2023-02-28T10:22:01.545Z,78.95
2023-02-28T10:24:47.803Z,80.48
2023-02-28T10:27:33.380Z,80.29
2023-02-28T10:30:17.564Z,79.73
2023-02-28T10:33:01.557Z,78.53
2023-02-28T10:35:46.787Z,78.32
2023-02-28T10:38:35.062Z,79.61
2023-02-28T10:41:29.961Z,78.09
2023-02-28T10:44:22.351Z,76.66
2023-02-28T10:47:06.356Z,77.14
2023-02-28T10:49:51.389Z,78.27
2023-02-28T10:52:39.962Z,78.65
2023-02-28T10:55:28.259Z,77.84
2023-02-28T10:58:34.045Z,77.13
2023-02-28T11:01:20.541Z,78.84
2023-02-28T11:04:05.273Z,79.40
2023-02-28T11:06:50.126Z,77.40
2023-02-28T11:09:37.136Z,77.64
2023-02-28T11:12:24.336Z,75.99
2023-02-28T11:15:23.052Z,75.49
2023-02-28T11:18:23.633Z,77.53
2023-02-28T11:21:08.336Z,76.16
2023-02-28T11:23:54.493Z,75.96
2023-02-28T11:26:43.057Z,78.14
2023-02-28T11:29:29.203Z,77.95
2023-02-28T11:32:20.785Z,77.84
2023-02-28T11:35:15.858Z,78.84
2023-02-28T11:38:00.209Z,77.47
2023-02-28T11:40:54.072Z,74.78
2023-02-28T11:43:57.871Z,75.57
2023-02-28T11:46:47.655Z,76.68
2023-02-28T11:49:40.308Z,75.45
2023-02-28T11:52:37.909Z,74.74
2023-02-28T11:55:26.134Z,74.71
2023-02-28T11:58:37.365Z,77.71
2023-02-28T12:01:32.983Z,77.61
2023-02-28T12:04:29.397Z,75.97
2023-02-28T12:07:21.367Z,77.51
2023-02-28T12:10:13.987Z,74.68
2023-02-28T12:13:09.609Z,76.00
2023-02-28T12:16:38.254Z,77.10
2023-02-28T12:19:28.191Z,77.41
2023-02-28T12:22:27.439Z,78.79
2023-02-28T12:25:39.956Z,77.69
2023-02-28T12:28:29.383Z,77.63
2023-02-28T12:31:20.744Z,75.43
2023-02-28T12:34:10.956Z,76.20
2023-02-28T12:36:58.431Z,76.40
2023-02-28T12:39:50.932Z,79.19
2023-02-28T12:42:38.969Z,79.10
2023-02-28T12:45:25.997Z,79.50
2023-02-28T12:48:14.909Z,78.64
2023-02-28T12:51:03.379Z,78.67
2023-02-28T12:53:57.816Z,80.04
2023-02-28T12:56:50.336Z,80.93
2023-02-28T12:59:40.701Z,79.30
2023-02-28T13:02:55.504Z,80.51
2023-02-28T13:06:15.782Z,81.34
2023-02-28T13:09:08.020Z,80.99
2023-02-28T13:11:53.979Z,80.53
2023-02-28T13:14:39.703Z,80.60
2023-02-28T13:17:27.107Z,81.52
2023-02-28T13:20:19.631Z,80.99
2023-02-28T13:23:03.694Z,82.48
2023-02-28T13:25:58.796Z,80.75
2023-02-28T13:29:30.982Z,80.46
2023-02-28T13:32:42.629Z,82.80
2023-02-28T13:35:49.875Z,82.92
2023-02-28T13:38:39.416Z,82.12
2023-02-28T13:41:47.742Z,82.59
2023-02-28T13:44:31.807Z,82.52
2023-02-28T13:47:33.904Z,82.70
2023-02-28T13:50:25.014Z,83.39
2023-02-28T13:53:40.423Z,84.63
2023-02-28T13:56:37.906Z,84.95
2023-02-28T13:59:30.459Z,84.96
2023-02-28T14:02:47.224Z,84.61
2023-02-28T14:05:34.774Z,84.03
2023-02-28T14:08:23.375Z,83.86
2023-02-28T14:11:08.937Z,83.98
2023-02-28T14:13:52.823Z,85.13
2023-02-28T14:16:43.430Z,85.35
2023-02-28T14:19:32.098Z,85.09
2023-02-28T14:22:40.064Z,85.97
2023-02-28T14:25:35.984Z,85.59
2023-02-28T14:28:28.150Z,85.19
2023-02-28T14:31:15.753Z,85.75
2023-02-28T14:34:24.114Z,85.79
2023-02-28T14:37:17.360Z,84.84
2023-02-28T14:40:03.042Z,86.01
2023-02-28T14:42:50.604Z,84.15
2023-02-28T14:45:38.469Z,84.26
2023-02-28T14:48:25.749Z,84.77
2023-02-28T14:51:11.387Z,84.93
2023-02-28T14:54:01.146Z,86.49
2023-02-28T14:56:45.401Z,86.99
2023-02-28T14:59:31.919Z,87.75
2023-02-28T15:02:26.004Z,87.92
2023-02-28T15:05:24.685Z,87.88
2023-02-28T15:08:16.431Z,88.54
2023-02-28T15:11:05.124Z,88.50
2023-02-28T15:13:51.432Z,89.55
2023-02-28T15:16:39.851Z,89.51
2023-02-28T15:19:27.189Z,89.92
2023-02-28T15:22:18.010Z,89.75
2023-02-28T15:25:03.733Z,89.65
2023-02-28T15:27:52.600Z,89.12
2023-02-28T15:30:36.633Z,90.44
2023-02-28T15:33:23.520Z,89.61
2023-02-28T15:36:13.665Z,89.75
2023-02-28T15:39:07.146Z,90.79
2023-02-28T15:42:19.668Z,89.87
2023-02-28T15:45:05.327Z,90.03
2023-02-28T15:47:50.186Z,89.13
2023-02-28T15:50:34.271Z,89.35
2023-02-28T15:53:21.693Z,87.84
2023-02-28T15:56:08.798Z,87.20
2023-02-28T15:58:55.615Z,87.77
2023-02-28T16:01:41.287Z,88.07
2023-02-28T16:04:30.667Z,89.11
2023-02-28T16:07:15.237Z,88.47
2023-02-28T16:09:59.479Z,87.42
2023-02-28T16:12:44.402Z,87.28
2023-02-28T16:15:30.497Z,86.96
2023-02-28T16:18:16.136Z,87.00
2023-02-28T16:21:00.192Z,88.42
2023-02-28T16:23:44.294Z,86.98
2023-02-28T16:26:29.398Z,87.97
2023-02-28T16:29:19.269Z,87.45
2023-02-28T16:32:06.307Z,86.72
2023-02-28T16:34:52.001Z,85.58
2023-02-28T16:37:36.113Z,85.16
2023-02-28T16:40:22.511Z,85.35
2023-02-28T16:43:12.336Z,85.58
2023-02-28T16:46:01.132Z,86.16
2023-02-28T16:48:45.878Z,85.42
2023-02-28T16:51:33.479Z,84.46
2023-02-28T16:54:19.042Z,84.57
2023-02-28T16:57:03.080Z,84.37
2023-02-28T16:59:47.156Z,84.57
2023-02-28T17:02:31.531Z,83.68
2023-02-28T17:05:16.687Z,82.35
2023-02-28T17:08:02.119Z,83.39
2023-02-28T17:10:46.116Z,87.15
2023-02-28T17:13:30.293Z,86.23
2023-02-28T17:16:23.126Z,84.88
2023-02-28T17:19:09.351Z,84.51
2023-02-28T17:21:54.093Z,85.62
2023-02-28T17:24:39.619Z,86.88
2023-02-28T17:27:23.706Z,86.41
2023-02-28T17:30:18.746Z,86.47
2023-02-28T17:33:02.846Z,87.23
2023-02-28T17:35:46.934Z,89.56
2023-02-28T17:38:30.997Z,88.13
2023-02-28T17:41:16.650Z,87.34
2023-02-28T17:44:00.750Z,87.08
2023-02-28T17:46:45.568Z,86.56
2023-02-28T17:49:29.640Z,86.58
2023-02-28T17:52:13.637Z,87.87
2023-02-28T17:54:57.958Z,88.77
2023-02-28T17:57:44.083Z,87.74
2023-02-28T18:00:28.618Z,88.08
2023-02-28T18:03:14.445Z,87.49
2023-02-28T18:05:58.634Z,88.83
2023-02-28T18:08:42.594Z,88.85
2023-02-28T18:11:27.221Z,88.52
2023-02-28T18:14:12.428Z,88.39
2023-02-28T18:16:57.643Z,89.22
2023-02-28T18:19:41.942Z,88.55
2023-02-28T18:22:25.770Z,87.40
2023-02-28T18:25:14.618Z,88.53
2023-02-28T18:28:00.924Z,90.97
2023-02-28T18:30:46.123Z,91.00
2023-02-28T18:33:29.930Z,90.05
2023-02-28T18:36:13.873Z,90.53
2023-02-28T18:38:57.691Z,91.17
2023-02-28T18:41:41.679Z,92.49
2023-02-28T18:44:25.525Z,91.97
2023-02-28T18:47:11.073Z,92.36
2023-02-28T18:49:55.122Z,91.72
2023-02-28T18:52:40.736Z,92.39
2023-02-28T18:55:24.768Z,91.90
2023-02-28T18:58:08.697Z,92.81
2023-02-28T19:00:52.847Z,93.42
2023-02-28T19:03:38.118Z,92.43
2023-02-28T19:06:22.141Z,90.61
2023-02-28T19:09:06.986Z,92.22
2023-02-28T19:11:50.938Z,92.02
2023-02-28T19:14:35.003Z,92.33
2023-02-28T19:17:19.098Z,92.77
2023-02-28T19:20:04.905Z,93.44
2023-02-28T19:22:48.898Z,94.97
2023-02-28T19:25:32.908Z,96.21
2023-02-28T19:28:16.783Z,96.82
2023-02-28T19:31:00.765Z,95.99
2023-02-28T19:33:44.994Z,97.04
2023-02-28T19:36:30.497Z,98.43
2023-02-28T19:39:14.524Z,99.04
2023-02-28T19:41:58.615Z,99.32
2023-02-28T19:44:43.397Z,100.00
2023-02-28T19:47:27.582Z,99.08
2023-02-28T19:50:12.497Z,99.20
2023-02-28T19:53:00.433Z,100.00
2023-02-28T19:55:44.845Z,99.43
2023-02-28T19:58:29.290Z,99.87
2023-02-28T20:01:15.759Z,100.00
2023-02-28T20:03:59.830Z,100.00
2023-02-28T20:06:43.746Z,100.00
2023-02-28T20:09:31.792Z,100.00
2023-02-28T20:12:23.989Z,100.00
2023-02-28T20:15:10.024Z,100.00
2023-02-28T20:17:53.936Z,100.00
2023-02-28T20:20:38.605Z,100.00
2023-02-28T20:23:22.499Z,100.00
2023-02-28T20:26:08.264Z,100.00
2023-02-28T20:28:52.151Z,100.00
2023-02-28T20:31:37.648Z,100.00
2023-02-28T20:34:23.344Z,100.00
2023-02-28T20:37:07.284Z,100.00
2023-02-28T20:39:53.109Z,100.00
2023-02-28T20:42:38.344Z,100.00
2023-02-28T20:45:22.375Z,100.00
2023-02-28T20:48:06.605Z,100.00
2023-02-28T20:50:50.820Z,100.00
2023-02-28T20:53:36.030Z,100.00
2023-02-28T20:56:21.313Z,100.00
2023-02-28T20:59:06.642Z,100.00
2023-02-28T21:01:50.682Z,100.00
2023-02-28T21:04:34.628Z,100.00
2023-02-28T21:07:18.527Z,100.00
2023-02-28T21:10:02.431Z,100.00
2023-02-28T21:12:50.700Z,100.00
2023-02-28T21:15:38.519Z,99.68
2023-02-28T21:18:22.586Z,98.96
2023-02-28T21:21:07.835Z,98.75
2023-02-28T21:23:51.964Z,99.51
2023-02-28T21:26:35.750Z,99.53
2023-02-28T21:29:19.588Z,98.04
2023-02-28T21:32:04.978Z,98.05
2023-02-28T21:34:48.809Z,97.68
2023-02-28T21:37:32.590Z,97.15
2023-02-28T21:40:16.772Z,96.91
2023-02-28T21:43:00.473Z,96.62
2023-02-28T21:45:44.279Z,94.23
2023-02-28T21:48:29.582Z,96.04
2023-02-28T21:51:16.046Z,95.62
2023-02-28T21:54:00.527Z,96.59
2023-02-28T21:56:44.611Z,96.57
2023-02-28T21:59:28.716Z,96.64
2023-02-28T22:02:12.895Z,96.66
2023-02-28T22:05:03.734Z,94.75
2023-02-28T22:07:47.607Z,96.54
2023-02-28T22:10:31.348Z,96.01
2023-02-28T22:13:15.226Z,95.19
2023-02-28T22:16:03.597Z,94.03
2023-02-28T22:18:47.950Z,94.84
2023-02-28T22:21:33.106Z,95.38
2023-02-28T22:24:17.987Z,95.74
2023-02-28T22:27:01.833Z,96.33
2023-02-28T22:29:47.432Z,96.41
2023-02-28T22:32:31.784Z,94.05
2023-02-28T22:35:15.856Z,94.81
2023-02-28T22:38:01.196Z,95.58
2023-02-28T22:40:45.734Z,96.05
2023-02-28T22:43:29.908Z,97.28
2023-02-28T22:46:15.141Z,96.45
2023-02-28T22:48:59.756Z,97.19
2023-02-28T22:51:43.900Z,97.21
2023-02-28T22:54:29.561Z,96.39
2023-02-28T22:57:13.632Z,95.62
2023-02-28T22:59:57.581Z,97.32
2023-02-28T23:02:41.603Z,98.54
2023-02-28T23:05:25.701Z,98.61
2023-02-28T23:08:09.806Z,99.67
2023-02-28T23:10:55.210Z,100.00
2023-02-28T23:13:39.299Z,99.50
2023-02-28T23:16:23.320Z,100.00
2023-02-28T23:19:10.023Z,99.88
2023-02-28T23:21:55.113Z,98.71
2023-02-28T23:24:39.507Z,97.43
2023-02-28T23:27:24.990Z,99.18
2023-02-28T23:30:11.185Z,99.63
2023-02-28T23:32:55.438Z,99.52
2023-02-28T23:35:39.464Z,100.00
2023-02-28T23:38:23.607Z,100.00
2023-02-28T23:41:11.142Z,100.00
2023-02-28T23:43:56.612Z,99.87
2023-02-28T23:46:40.629Z,100.00
2023-02-28T23:49:24.786Z,100.00
2023-02-28T23:52:08.758Z,100.00
2023-02-28T23:54:52.849Z,100.00
2023-02-28T23:57:36.860Z,100.00
